Terminal Aerodrome Forecast
Issued by NWS

Home | Current Version | Previous Version | Graphics & Text | Print | Product List | Glossary On
Versions: 1 2 3 4 5 6 7 8 9 10 11 12 13 14
000
FTUS43 KMPX 141700
TAFRWF
TAF
KRWF 141740Z 1418/1518 29008KT P6SM BKN120
     FM150200 32004KT P6SM -RA SCT040 OVC060
     FM150900 32004KT P6SM BKN060
     FM151500 33007KT P6SM FEW060=

USA.gov is the U.S. government's official web portal to all federal, state and local government web resources and services.